sensor_id;sensor_type;location;lat;lon;timestamp;P1;durP1;ratioP1;P2;durP2;ratioP2
71562;SDS011;59391;52.504;13.438;2024-01-07T00:02:14;8.30;;;5.10;;
71562;SDS011;59391;52.504;13.438;2024-01-07T00:04:39;8.63;;;5.32;;
71562;SDS011;59391;52.504;13.438;2024-01-07T00:07:05;8.93;;;5.60;;
71562;SDS011;59391;52.504;13.438;2024-01-07T00:09:31;10.07;;;5.63;;
71562;SDS011;59391;52.504;13.438;2024-01-07T00:11:57;9.20;;;5.53;;
71562;SDS011;59391;52.504;13.438;2024-01-07T00:14:22;9.00;;;5.30;;
71562;SDS011;59391;52.504;13.438;2024-01-07T00:16:48;9.77;;;5.47;;
71562;SDS011;59391;52.504;13.438;2024-01-07T00:19:14;11.63;;;5.95;;
71562;SDS011;59391;52.504;13.438;2024-01-07T00:21:39;8.90;;;5.73;;
71562;SDS011;59391;52.504;13.438;2024-01-07T00:24:05;8.30;;;5.25;;
71562;SDS011;59391;52.504;13.438;2024-01-07T00:26:31;9.57;;;5.40;;
71562;SDS011;59391;52.504;13.438;2024-01-07T00:28:56;10.82;;;5.93;;
71562;SDS011;59391;52.504;13.438;2024-01-07T00:31:22;9.32;;;5.63;;
71562;SDS011;59391;52.504;13.438;2024-01-07T00:33:47;10.63;;;6.57;;
71562;SDS011;59391;52.504;13.438;2024-01-07T00:36:16;10.20;;;5.70;;
71562;SDS011;59391;52.504;13.438;2024-01-07T00:38:41;9.10;;;5.77;;
71562;SDS011;59391;52.504;13.438;2024-01-07T00:41:07;9.40;;;5.35;;
71562;SDS011;59391;52.504;13.438;2024-01-07T00:43:33;12.93;;;6.10;;
71562;SDS011;59391;52.504;13.438;2024-01-07T00:45:58;10.27;;;5.33;;
71562;SDS011;59391;52.504;13.438;2024-01-07T00:48:24;8.95;;;5.13;;
71562;SDS011;59391;52.504;13.438;2024-01-07T00:50:49;9.50;;;5.53;;
71562;SDS011;59391;52.504;13.438;2024-01-07T00:53:15;8.17;;;4.60;;
71562;SDS011;59391;52.504;13.438;2024-01-07T00:55:41;7.45;;;4.18;;
71562;SDS011;59391;52.504;13.438;2024-01-07T00:58:06;7.87;;;4.97;;
71562;SDS011;59391;52.504;13.438;2024-01-07T01:00:32;9.60;;;4.60;;
71562;SDS011;59391;52.504;13.438;2024-01-07T01:02:57;7.05;;;4.78;;
71562;SDS011;59391;52.504;13.438;2024-01-07T01:05:23;7.70;;;4.60;;
71562;SDS011;59391;52.504;13.438;2024-01-07T01:07:49;8.18;;;5.03;;
71562;SDS011;59391;52.504;13.438;2024-01-07T01:10:15;9.57;;;4.43;;
71562;SDS011;59391;52.504;13.438;2024-01-07T01:12:42;6.43;;;4.27;;
71562;SDS011;59391;52.504;13.438;2024-01-07T01:15:09;7.47;;;4.80;;
71562;SDS011;59391;52.504;13.438;2024-01-07T01:17:34;8.15;;;4.32;;
71562;SDS011;59391;52.504;13.438;2024-01-07T01:20:00;6.63;;;3.53;;
71562;SDS011;59391;52.504;13.438;2024-01-07T01:22:26;5.70;;;3.75;;
71562;SDS011;59391;52.504;13.438;2024-01-07T01:24:51;6.07;;;4.23;;
71562;SDS011;59391;52.504;13.438;2024-01-07T01:27:18;8.07;;;4.20;;
71562;SDS011;59391;52.504;13.438;2024-01-07T01:29:44;6.70;;;4.10;;
71562;SDS011;59391;52.504;13.438;2024-01-07T01:32:10;6.40;;;3.97;;
71562;SDS011;59391;52.504;13.438;2024-01-07T01:34:35;5.57;;;3.95;;
71562;SDS011;59391;52.504;13.438;2024-01-07T01:37:01;6.03;;;4.30;;
71562;SDS011;59391;52.504;13.438;2024-01-07T01:39:28;6.18;;;4.40;;
71562;SDS011;59391;52.504;13.438;2024-01-07T01:41:54;9.57;;;4.50;;
71562;SDS011;59391;52.504;13.438;2024-01-07T01:44:20;6.97;;;4.18;;
71562;SDS011;59391;52.504;13.438;2024-01-07T01:46:46;7.07;;;4.63;;
71562;SDS011;59391;52.504;13.438;2024-01-07T01:49:12;6.43;;;4.70;;
71562;SDS011;59391;52.504;13.438;2024-01-07T01:51:39;8.50;;;4.90;;
71562;SDS011;59391;52.504;13.438;2024-01-07T01:54:04;7.10;;;4.72;;
71562;SDS011;59391;52.504;13.438;2024-01-07T01:56:31;8.23;;;4.17;;
71562;SDS011;59391;52.504;13.438;2024-01-07T01:58:59;6.72;;;4.00;;
71562;SDS011;59391;52.504;13.438;2024-01-07T02:01:24;7.53;;;4.30;;
71562;SDS011;59391;52.504;13.438;2024-01-07T02:03:51;7.43;;;4.00;;
71562;SDS011;59391;52.504;13.438;2024-01-07T02:06:18;7.72;;;4.57;;
71562;SDS011;59391;52.504;13.438;2024-01-07T02:08:45;6.53;;;4.00;;
71562;SDS011;59391;52.504;13.438;2024-01-07T02:11:15;9.07;;;4.30;;
71562;SDS011;59391;52.504;13.438;2024-01-07T02:13:45;7.88;;;4.35;;
71562;SDS011;59391;52.504;13.438;2024-01-07T02:16:11;6.65;;;4.40;;
71562;SDS011;59391;52.504;13.438;2024-01-07T02:18:40;7.60;;;4.00;;
71562;SDS011;59391;52.504;13.438;2024-01-07T02:21:08;6.45;;;4.05;;
71562;SDS011;59391;52.504;13.438;2024-01-07T02:23:35;6.47;;;4.15;;
71562;SDS011;59391;52.504;13.438;2024-01-07T02:26:01;5.82;;;3.95;;
71562;SDS011;59391;52.504;13.438;2024-01-07T02:28:27;5.53;;;4.03;;
71562;SDS011;59391;52.504;13.438;2024-01-07T02:30:54;7.00;;;4.20;;
71562;SDS011;59391;52.504;13.438;2024-01-07T02:33:19;6.22;;;4.20;;
71562;SDS011;59391;52.504;13.438;2024-01-07T02:35:45;7.00;;;4.37;;
71562;SDS011;59391;52.504;13.438;2024-01-07T02:38:11;6.90;;;4.50;;
71562;SDS011;59391;52.504;13.438;2024-01-07T02:40:36;7.03;;;4.07;;
71562;SDS011;59391;52.504;13.438;2024-01-07T02:43:02;8.67;;;4.50;;
71562;SDS011;59391;52.504;13.438;2024-01-07T02:45:28;6.97;;;4.50;;
71562;SDS011;59391;52.504;13.438;2024-01-07T02:47:53;6.77;;;4.37;;
71562;SDS011;59391;52.504;13.438;2024-01-07T02:50:19;6.05;;;4.25;;
71562;SDS011;59391;52.504;13.438;2024-01-07T02:52:45;6.00;;;4.03;;
71562;SDS011;59391;52.504;13.438;2024-01-07T02:55:10;7.57;;;4.27;;
71562;SDS011;59391;52.504;13.438;2024-01-07T02:57:36;6.60;;;4.45;;
71562;SDS011;59391;52.504;13.438;2024-01-07T03:00:01;6.27;;;4.13;;
71562;SDS011;59391;52.504;13.438;2024-01-07T03:02:29;6.78;;;4.30;;
71562;SDS011;59391;52.504;13.438;2024-01-07T03:04:55;7.00;;;4.68;;
71562;SDS011;59391;52.504;13.438;2024-01-07T03:07:21;7.47;;;4.65;;
71562;SDS011;59391;52.504;13.438;2024-01-07T03:09:47;6.67;;;3.87;;
71562;SDS011;59391;52.504;13.438;2024-01-07T03:12:14;6.18;;;4.20;;
71562;SDS011;59391;52.504;13.438;2024-01-07T03:14:43;7.25;;;4.50;;
71562;SDS011;59391;52.504;13.438;2024-01-07T03:17:11;6.03;;;3.93;;
71562;SDS011;59391;52.504;13.438;2024-01-07T03:19:37;5.68;;;3.95;;
71562;SDS011;59391;52.504;13.438;2024-01-07T03:22:03;6.53;;;4.28;;
71562;SDS011;59391;52.504;13.438;2024-01-07T03:24:30;6.88;;;4.50;;
71562;SDS011;59391;52.504;13.438;2024-01-07T03:26:56;6.80;;;4.13;;
71562;SDS011;59391;52.504;13.438;2024-01-07T03:29:22;8.50;;;4.70;;
71562;SDS011;59391;52.504;13.438;2024-01-07T03:31:47;5.82;;;4.05;;
71562;SDS011;59391;52.504;13.438;2024-01-07T03:34:13;7.30;;;4.40;;
71562;SDS011;59391;52.504;13.438;2024-01-07T03:36:38;7.72;;;4.85;;
71562;SDS011;59391;52.504;13.438;2024-01-07T03:39:04;5.80;;;4.00;;
71562;SDS011;59391;52.504;13.438;2024-01-07T03:41:30;6.67;;;4.10;;
71562;SDS011;59391;52.504;13.438;2024-01-07T03:43:55;6.82;;;4.00;;
71562;SDS011;59391;52.504;13.438;2024-01-07T03:46:21;8.33;;;5.17;;
71562;SDS011;59391;52.504;13.438;2024-01-07T03:48:47;7.43;;;4.55;;
71562;SDS011;59391;52.504;13.438;2024-01-07T03:51:13;6.93;;;4.07;;
71562;SDS011;59391;52.504;13.438;2024-01-07T03:53:39;7.60;;;4.90;;
71562;SDS011;59391;52.504;13.438;2024-01-07T03:56:04;8.18;;;4.95;;
71562;SDS011;59391;52.504;13.438;2024-01-07T03:58:30;7.57;;;4.60;;
71562;SDS011;59391;52.504;13.438;2024-01-07T04:00:56;7.03;;;4.50;;
71562;SDS011;59391;52.504;13.438;2024-01-07T04:03:22;7.30;;;4.63;;
71562;SDS011;59391;52.504;13.438;2024-01-07T04:05:47;7.70;;;4.97;;
71562;SDS011;59391;52.504;13.438;2024-01-07T04:08:13;7.30;;;5.03;;
71562;SDS011;59391;52.504;13.438;2024-01-07T04:10:40;8.40;;;4.40;;
71562;SDS011;59391;52.504;13.438;2024-01-07T04:13:06;7.13;;;4.68;;
71562;SDS011;59391;52.504;13.438;2024-01-07T04:15:32;6.30;;;4.00;;
71562;SDS011;59391;52.504;13.438;2024-01-07T04:18:00;6.85;;;4.40;;
71562;SDS011;59391;52.504;13.438;2024-01-07T04:20:28;5.83;;;4.07;;
71562;SDS011;59391;52.504;13.438;2024-01-07T04:22:54;7.78;;;4.70;;
71562;SDS011;59391;52.504;13.438;2024-01-07T04:25:20;6.78;;;4.60;;
71562;SDS011;59391;52.504;13.438;2024-01-07T04:27:45;6.10;;;3.90;;
71562;SDS011;59391;52.504;13.438;2024-01-07T04:30:11;6.47;;;4.50;;
71562;SDS011;59391;52.504;13.438;2024-01-07T04:32:37;7.20;;;4.55;;
71562;SDS011;59391;52.504;13.438;2024-01-07T04:35:03;5.77;;;4.20;;
71562;SDS011;59391;52.504;13.438;2024-01-07T04:37:29;7.78;;;4.80;;
71562;SDS011;59391;52.504;13.438;2024-01-07T04:39:54;5.82;;;4.57;;
71562;SDS011;59391;52.504;13.438;2024-01-07T04:42:20;6.93;;;4.37;;
71562;SDS011;59391;52.504;13.438;2024-01-07T04:44:46;5.90;;;4.00;;
71562;SDS011;59391;52.504;13.438;2024-01-07T04:47:27;7.18;;;4.57;;
71562;SDS011;59391;52.504;13.438;2024-01-07T04:50:00;5.72;;;4.43;;
71562;SDS011;59391;52.504;13.438;2024-01-07T04:52:27;6.63;;;4.10;;
71562;SDS011;59391;52.504;13.438;2024-01-07T04:54:53;6.75;;;4.30;;
71562;SDS011;59391;52.504;13.438;2024-01-07T04:57:21;7.28;;;4.45;;
71562;SDS011;59391;52.504;13.438;2024-01-07T04:59:48;6.83;;;4.03;;
71562;SDS011;59391;52.504;13.438;2024-01-07T05:02:14;6.43;;;4.40;;
71562;SDS011;59391;52.504;13.438;2024-01-07T05:04:40;6.32;;;4.20;;
71562;SDS011;59391;52.504;13.438;2024-01-07T05:07:06;6.60;;;3.90;;
71562;SDS011;59391;52.504;13.438;2024-01-07T05:09:32;6.28;;;3.78;;
71562;SDS011;59391;52.504;13.438;2024-01-07T05:11:58;7.13;;;4.20;;
71562;SDS011;59391;52.504;13.438;2024-01-07T05:14:25;6.17;;;4.30;;
71562;SDS011;59391;52.504;13.438;2024-01-07T05:16:52;7.65;;;4.35;;
71562;SDS011;59391;52.504;13.438;2024-01-07T05:19:19;8.13;;;4.80;;
71562;SDS011;59391;52.504;13.438;2024-01-07T05:21:45;6.17;;;4.10;;
71562;SDS011;59391;52.504;13.438;2024-01-07T05:24:10;6.57;;;4.35;;
71562;SDS011;59391;52.504;13.438;2024-01-07T05:26:40;6.63;;;4.40;;
71562;SDS011;59391;52.504;13.438;2024-01-07T05:29:07;8.73;;;4.85;;
71562;SDS011;59391;52.504;13.438;2024-01-07T05:31:33;6.78;;;4.20;;
71562;SDS011;59391;52.504;13.438;2024-01-07T05:33:59;6.07;;;4.30;;
71562;SDS011;59391;52.504;13.438;2024-01-07T05:36:24;6.97;;;4.20;;
71562;SDS011;59391;52.504;13.438;2024-01-07T05:38:50;8.55;;;4.50;;
71562;SDS011;59391;52.504;13.438;2024-01-07T05:41:16;7.37;;;4.57;;
71562;SDS011;59391;52.504;13.438;2024-01-07T05:43:41;7.15;;;4.88;;
71562;SDS011;59391;52.504;13.438;2024-01-07T05:46:07;7.10;;;4.83;;
71562;SDS011;59391;52.504;13.438;2024-01-07T05:48:45;6.68;;;4.60;;
71562;SDS011;59391;52.504;13.438;2024-01-07T05:51:14;8.40;;;4.87;;
71562;SDS011;59391;52.504;13.438;2024-01-07T05:53:40;6.90;;;4.40;;
71562;SDS011;59391;52.504;13.438;2024-01-07T05:56:07;7.90;;;5.35;;
71562;SDS011;59391;52.504;13.438;2024-01-07T05:58:32;7.78;;;4.82;;
71562;SDS011;59391;52.504;13.438;2024-01-07T06:00:58;6.63;;;4.43;;
71562;SDS011;59391;52.504;13.438;2024-01-07T06:03:25;7.53;;;4.53;;
71562;SDS011;59391;52.504;13.438;2024-01-07T06:05:51;7.43;;;4.85;;
71562;SDS011;59391;52.504;13.438;2024-01-07T06:08:18;7.53;;;4.67;;
71562;SDS011;59391;52.504;13.438;2024-01-07T06:10:43;10.05;;;4.65;;
71562;SDS011;59391;52.504;13.438;2024-01-07T06:13:09;8.27;;;4.95;;
71562;SDS011;59391;52.504;13.438;2024-01-07T06:15:35;7.70;;;5.03;;
71562;SDS011;59391;52.504;13.438;2024-01-07T06:18:00;8.07;;;5.18;;
71562;SDS011;59391;52.504;13.438;2024-01-07T06:20:26;6.90;;;4.38;;
71562;SDS011;59391;52.504;13.438;2024-01-07T06:22:53;9.02;;;5.30;;
71562;SDS011;59391;52.504;13.438;2024-01-07T06:25:18;9.03;;;5.00;;
71562;SDS011;59391;52.504;13.438;2024-01-07T06:27:45;8.70;;;5.50;;
71562;SDS011;59391;52.504;13.438;2024-01-07T06:30:11;7.67;;;5.20;;
71562;SDS011;59391;52.504;13.438;2024-01-07T06:32:37;8.98;;;5.43;;
71562;SDS011;59391;52.504;13.438;2024-01-07T06:35:02;7.18;;;4.90;;
71562;SDS011;59391;52.504;13.438;2024-01-07T06:37:28;8.00;;;5.10;;
71562;SDS011;59391;52.504;13.438;2024-01-07T06:39:55;9.48;;;5.30;;
71562;SDS011;59391;52.504;13.438;2024-01-07T06:42:23;7.03;;;4.30;;
71562;SDS011;59391;52.504;13.438;2024-01-07T06:44:49;8.45;;;4.97;;
71562;SDS011;59391;52.504;13.438;2024-01-07T06:47:15;11.10;;;4.83;;
71562;SDS011;59391;52.504;13.438;2024-01-07T06:49:40;8.45;;;5.13;;
71562;SDS011;59391;52.504;13.438;2024-01-07T06:52:06;8.45;;;5.03;;
71562;SDS011;59391;52.504;13.438;2024-01-07T06:54:31;8.40;;;5.00;;
71562;SDS011;59391;52.504;13.438;2024-01-07T06:56:58;8.13;;;4.82;;
71562;SDS011;59391;52.504;13.438;2024-01-07T06:59:23;8.03;;;4.97;;
71562;SDS011;59391;52.504;13.438;2024-01-07T07:01:49;8.55;;;5.20;;
71562;SDS011;59391;52.504;13.438;2024-01-07T07:04:14;11.57;;;5.50;;
71562;SDS011;59391;52.504;13.438;2024-01-07T07:06:40;9.77;;;5.18;;
71562;SDS011;59391;52.504;13.438;2024-01-07T07:09:06;7.30;;;4.88;;
71562;SDS011;59391;52.504;13.438;2024-01-07T07:11:32;6.90;;;4.40;;
71562;SDS011;59391;52.504;13.438;2024-01-07T07:13:57;8.63;;;5.53;;
71562;SDS011;59391;52.504;13.438;2024-01-07T07:16:23;9.03;;;5.40;;
71562;SDS011;59391;52.504;13.438;2024-01-07T07:18:50;8.32;;;4.93;;
71562;SDS011;59391;52.504;13.438;2024-01-07T07:21:15;7.50;;;5.00;;
71562;SDS011;59391;52.504;13.438;2024-01-07T07:23:41;9.32;;;5.10;;
71562;SDS011;59391;52.504;13.438;2024-01-07T07:26:06;7.37;;;4.90;;
71562;SDS011;59391;52.504;13.438;2024-01-07T07:28:33;6.82;;;4.53;;
71562;SDS011;59391;52.504;13.438;2024-01-07T07:30:58;6.93;;;4.63;;
71562;SDS011;59391;52.504;13.438;2024-01-07T07:33:24;7.43;;;4.50;;
71562;SDS011;59391;52.504;13.438;2024-01-07T07:35:50;9.37;;;4.87;;
71562;SDS011;59391;52.504;13.438;2024-01-07T07:38:15;6.60;;;4.80;;
71562;SDS011;59391;52.504;13.438;2024-01-07T07:40:41;7.30;;;4.63;;
71562;SDS011;59391;52.504;13.438;2024-01-07T07:43:07;6.85;;;4.90;;
71562;SDS011;59391;52.504;13.438;2024-01-07T07:45:33;7.90;;;4.45;;
71562;SDS011;59391;52.504;13.438;2024-01-07T07:47:59;6.78;;;4.70;;
71562;SDS011;59391;52.504;13.438;2024-01-07T07:50:25;7.57;;;4.80;;
71562;SDS011;59391;52.504;13.438;2024-01-07T07:52:50;7.73;;;5.00;;
71562;SDS011;59391;52.504;13.438;2024-01-07T07:55:16;8.18;;;4.95;;
71562;SDS011;59391;52.504;13.438;2024-01-07T07:57:42;6.97;;;4.43;;
71562;SDS011;59391;52.504;13.438;2024-01-07T08:00:07;7.87;;;5.23;;
71562;SDS011;59391;52.504;13.438;2024-01-07T08:02:37;8.23;;;4.95;;
71562;SDS011;59391;52.504;13.438;2024-01-07T08:05:04;7.53;;;4.70;;
71562;SDS011;59391;52.504;13.438;2024-01-07T08:07:32;6.85;;;4.97;;
71562;SDS011;59391;52.504;13.438;2024-01-07T08:09:57;7.68;;;4.65;;
71562;SDS011;59391;52.504;13.438;2024-01-07T08:12:23;7.27;;;4.80;;
71562;SDS011;59391;52.504;13.438;2024-01-07T08:14:49;7.90;;;4.80;;
71562;SDS011;59391;52.504;13.438;2024-01-07T08:17:14;7.57;;;4.97;;
71562;SDS011;59391;52.504;13.438;2024-01-07T08:19:40;7.10;;;4.70;;
71562;SDS011;59391;52.504;13.438;2024-01-07T08:22:06;7.10;;;4.33;;
71562;SDS011;59391;52.504;13.438;2024-01-07T08:24:32;7.50;;;5.10;;
71562;SDS011;59391;52.504;13.438;2024-01-07T08:26:57;7.57;;;4.97;;
71562;SDS011;59391;52.504;13.438;2024-01-07T08:29:23;7.00;;;4.88;;
71562;SDS011;59391;52.504;13.438;2024-01-07T08:31:49;7.47;;;4.50;;
71562;SDS011;59391;52.504;13.438;2024-01-07T08:34:15;7.57;;;5.07;;
71562;SDS011;59391;52.504;13.438;2024-01-07T08:36:40;7.00;;;4.50;;
71562;SDS011;59391;52.504;13.438;2024-01-07T08:39:06;8.55;;;4.75;;
71562;SDS011;59391;52.504;13.438;2024-01-07T08:41:33;6.88;;;4.60;;
71562;SDS011;59391;52.504;13.438;2024-01-07T08:43:58;8.17;;;4.80;;
71562;SDS011;59391;52.504;13.438;2024-01-07T08:46:24;8.20;;;5.10;;
71562;SDS011;59391;52.504;13.438;2024-01-07T08:48:49;8.43;;;5.15;;
71562;SDS011;59391;52.504;13.438;2024-01-07T08:51:15;7.07;;;4.93;;
71562;SDS011;59391;52.504;13.438;2024-01-07T08:53:41;8.02;;;4.85;;
71562;SDS011;59391;52.504;13.438;2024-01-07T08:56:06;9.97;;;5.13;;
71562;SDS011;59391;52.504;13.438;2024-01-07T08:58:32;9.27;;;5.43;;
71562;SDS011;59391;52.504;13.438;2024-01-07T09:00:58;8.13;;;4.87;;
71562;SDS011;59391;52.504;13.438;2024-01-07T09:03:23;7.47;;;4.95;;
71562;SDS011;59391;52.504;13.438;2024-01-07T09:05:49;8.53;;;5.40;;
71562;SDS011;59391;52.504;13.438;2024-01-07T09:08:15;7.50;;;5.07;;
71562;SDS011;59391;52.504;13.438;2024-01-07T09:10:40;9.20;;;5.55;;
71562;SDS011;59391;52.504;13.438;2024-01-07T09:13:06;7.88;;;4.97;;
71562;SDS011;59391;52.504;13.438;2024-01-07T09:15:32;7.47;;;4.90;;
71562;SDS011;59391;52.504;13.438;2024-01-07T09:17:57;7.80;;;5.17;;
71562;SDS011;59391;52.504;13.438;2024-01-07T09:20:23;9.98;;;5.65;;
71562;SDS011;59391;52.504;13.438;2024-01-07T09:22:49;7.63;;;4.97;;
71562;SDS011;59391;52.504;13.438;2024-01-07T09:25:15;11.30;;;5.50;;
71562;SDS011;59391;52.504;13.438;2024-01-07T09:27:41;8.60;;;5.37;;
71562;SDS011;59391;52.504;13.438;2024-01-07T09:30:08;7.53;;;5.20;;
71562;SDS011;59391;52.504;13.438;2024-01-07T09:32:40;9.05;;;5.32;;
71562;SDS011;59391;52.504;13.438;2024-01-07T09:35:06;8.73;;;5.75;;
71562;SDS011;59391;52.504;13.438;2024-01-07T09:37:32;8.55;;;5.88;;
71562;SDS011;59391;52.504;13.438;2024-01-07T09:39:58;9.87;;;6.23;;
71562;SDS011;59391;52.504;13.438;2024-01-07T09:42:24;10.32;;;6.25;;
71562;SDS011;59391;52.504;13.438;2024-01-07T09:44:50;10.63;;;6.30;;
71562;SDS011;59391;52.504;13.438;2024-01-07T09:47:16;10.93;;;6.30;;
71562;SDS011;59391;52.504;13.438;2024-01-07T09:49:42;11.35;;;6.63;;
71562;SDS011;59391;52.504;13.438;2024-01-07T09:52:09;10.02;;;6.30;;
71562;SDS011;59391;52.504;13.438;2024-01-07T09:54:37;12.38;;;6.57;;
71562;SDS011;59391;52.504;13.438;2024-01-07T09:57:05;11.67;;;6.50;;
71562;SDS011;59391;52.504;13.438;2024-01-07T09:59:33;10.80;;;6.55;;
71562;SDS011;59391;52.504;13.438;2024-01-07T10:02:01;11.65;;;6.90;;
71562;SDS011;59391;52.504;13.438;2024-01-07T10:04:28;10.43;;;6.30;;
71562;SDS011;59391;52.504;13.438;2024-01-07T10:06:55;11.18;;;6.38;;
71562;SDS011;59391;52.504;13.438;2024-01-07T10:09:24;11.67;;;6.40;;
71562;SDS011;59391;52.504;13.438;2024-01-07T10:11:55;11.18;;;7.25;;
71562;SDS011;59391;52.504;13.438;2024-01-07T10:14:21;12.55;;;6.88;;
71562;SDS011;59391;52.504;13.438;2024-01-07T10:16:47;12.40;;;6.60;;
71562;SDS011;59391;52.504;13.438;2024-01-07T10:19:21;10.38;;;6.55;;
71562;SDS011;59391;52.504;13.438;2024-01-07T10:21:58;11.20;;;6.72;;
71562;SDS011;59391;52.504;13.438;2024-01-07T10:24:35;10.50;;;6.65;;
71562;SDS011;59391;52.504;13.438;2024-01-07T10:27:03;11.55;;;6.90;;
71562;SDS011;59391;52.504;13.438;2024-01-07T10:29:30;10.87;;;6.90;;
71562;SDS011;59391;52.504;13.438;2024-01-07T10:31:59;12.10;;;7.18;;
71562;SDS011;59391;52.504;13.438;2024-01-07T10:34:36;11.18;;;7.18;;
71562;SDS011;59391;52.504;13.438;2024-01-07T10:37:02;10.70;;;6.35;;
71562;SDS011;59391;52.504;13.438;2024-01-07T10:39:33;10.18;;;6.53;;
71562;SDS011;59391;52.504;13.438;2024-01-07T10:41:59;11.73;;;7.30;;
71562;SDS011;59391;52.504;13.438;2024-01-07T10:44:29;11.73;;;6.78;;
71562;SDS011;59391;52.504;13.438;2024-01-07T10:46:56;12.63;;;7.40;;
71562;SDS011;59391;52.504;13.438;2024-01-07T10:49:24;12.43;;;7.38;;
71562;SDS011;59391;52.504;13.438;2024-01-07T10:52:05;11.75;;;7.13;;
71562;SDS011;59391;52.504;13.438;2024-01-07T10:54:33;12.77;;;7.13;;
71562;SDS011;59391;52.504;13.438;2024-01-07T10:57:09;11.43;;;7.15;;
71562;SDS011;59391;52.504;13.438;2024-01-07T10:59:52;12.87;;;7.50;;
71562;SDS011;59391;52.504;13.438;2024-01-07T11:02:21;11.13;;;7.07;;
71562;SDS011;59391;52.504;13.438;2024-01-07T11:07:33;11.52;;;6.82;;
71562;SDS011;59391;52.504;13.438;2024-01-07T11:10:14;11.30;;;6.70;;
71562;SDS011;59391;52.504;13.438;2024-01-07T11:12:52;13.37;;;7.40;;
71562;SDS011;59391;52.504;13.438;2024-01-07T11:16:06;12.63;;;7.07;;
71562;SDS011;59391;52.504;13.438;2024-01-07T11:18:21;10.68;;;7.28;;
71562;SDS011;59391;52.504;13.438;2024-01-07T11:20:48;11.40;;;7.43;;
71562;SDS011;59391;52.504;13.438;2024-01-07T11:25:56;14.07;;;8.10;;
71562;SDS011;59391;52.504;13.438;2024-01-07T11:31:19;11.20;;;7.20;;
71562;SDS011;59391;52.504;13.438;2024-01-07T11:33:47;13.93;;;7.60;;
71562;SDS011;59391;52.504;13.438;2024-01-07T11:36:15;12.93;;;7.13;;
71562;SDS011;59391;52.504;13.438;2024-01-07T11:38:47;12.63;;;6.90;;
71562;SDS011;59391;52.504;13.438;2024-01-07T11:41:21;12.15;;;7.70;;
71562;SDS011;59391;52.504;13.438;2024-01-07T11:43:57;12.85;;;7.13;;
71562;SDS011;59391;52.504;13.438;2024-01-07T11:46:25;14.02;;;6.70;;
71562;SDS011;59391;52.504;13.438;2024-01-07T11:48:55;10.90;;;6.63;;
71562;SDS011;59391;52.504;13.438;2024-01-07T11:51:27;11.77;;;7.10;;
71562;SDS011;59391;52.504;13.438;2024-01-07T11:53:57;11.00;;;6.72;;
71562;SDS011;59391;52.504;13.438;2024-01-07T11:56:25;11.10;;;6.65;;
71562;SDS011;59391;52.504;13.438;2024-01-07T11:58:53;9.48;;;6.00;;
71562;SDS011;59391;52.504;13.438;2024-01-07T12:01:21;9.52;;;6.57;;
71562;SDS011;59391;52.504;13.438;2024-01-07T12:03:47;10.97;;;6.70;;
71562;SDS011;59391;52.504;13.438;2024-01-07T12:06:13;14.75;;;7.18;;
71562;SDS011;59391;52.504;13.438;2024-01-07T12:08:40;10.05;;;6.13;;
71562;SDS011;59391;52.504;13.438;2024-01-07T12:11:07;13.73;;;8.20;;
71562;SDS011;59391;52.504;13.438;2024-01-07T12:13:33;11.43;;;6.50;;
71562;SDS011;59391;52.504;13.438;2024-01-07T12:16:00;11.73;;;6.47;;
71562;SDS011;59391;52.504;13.438;2024-01-07T12:18:25;11.05;;;6.72;;
71562;SDS011;59391;52.504;13.438;2024-01-07T12:20:55;9.60;;;6.65;;
71562;SDS011;59391;52.504;13.438;2024-01-07T12:23:23;9.60;;;6.43;;
71562;SDS011;59391;52.504;13.438;2024-01-07T12:25:49;10.50;;;6.15;;
71562;SDS011;59391;52.504;13.438;2024-01-07T12:28:16;12.82;;;7.15;;
71562;SDS011;59391;52.504;13.438;2024-01-07T12:30:43;10.07;;;6.60;;
71562;SDS011;59391;52.504;13.438;2024-01-07T12:33:09;11.45;;;6.60;;
71562;SDS011;59391;52.504;13.438;2024-01-07T12:35:35;9.82;;;6.55;;
71562;SDS011;59391;52.504;13.438;2024-01-07T12:38:01;9.88;;;6.47;;
71562;SDS011;59391;52.504;13.438;2024-01-07T12:40:27;10.48;;;6.40;;
71562;SDS011;59391;52.504;13.438;2024-01-07T12:42:53;10.67;;;6.60;;
71562;SDS011;59391;52.504;13.438;2024-01-07T12:45:22;10.10;;;6.78;;
71562;SDS011;59391;52.504;13.438;2024-01-07T12:47:47;8.68;;;6.40;;
71562;SDS011;59391;52.504;13.438;2024-01-07T12:50:13;14.38;;;6.90;;
71562;SDS011;59391;52.504;13.438;2024-01-07T12:52:40;13.87;;;8.00;;
71562;SDS011;59391;52.504;13.438;2024-01-07T12:55:06;11.13;;;6.55;;
71562;SDS011;59391;52.504;13.438;2024-01-07T12:57:32;10.85;;;6.63;;
71562;SDS011;59391;52.504;13.438;2024-01-07T12:59:59;10.73;;;6.33;;
71562;SDS011;59391;52.504;13.438;2024-01-07T13:02:25;9.02;;;6.13;;
71562;SDS011;59391;52.504;13.438;2024-01-07T13:04:51;10.10;;;6.35;;
71562;SDS011;59391;52.504;13.438;2024-01-07T13:07:17;8.73;;;6.10;;
71562;SDS011;59391;52.504;13.438;2024-01-07T13:09:42;9.90;;;5.93;;
71562;SDS011;59391;52.504;13.438;2024-01-07T13:12:09;8.95;;;5.72;;
71562;SDS011;59391;52.504;13.438;2024-01-07T13:14:36;12.43;;;6.83;;
71562;SDS011;59391;52.504;13.438;2024-01-07T13:17:02;9.18;;;6.07;;
71562;SDS011;59391;52.504;13.438;2024-01-07T13:19:28;9.80;;;6.20;;
71562;SDS011;59391;52.504;13.438;2024-01-07T13:21:55;9.53;;;5.83;;
71562;SDS011;59391;52.504;13.438;2024-01-07T13:24:23;8.60;;;5.85;;
71562;SDS011;59391;52.504;13.438;2024-01-07T13:26:49;8.48;;;5.70;;
71562;SDS011;59391;52.504;13.438;2024-01-07T13:29:14;9.10;;;5.97;;
71562;SDS011;59391;52.504;13.438;2024-01-07T13:31:40;8.43;;;5.88;;
71562;SDS011;59391;52.504;13.438;2024-01-07T13:34:06;9.17;;;5.77;;
71562;SDS011;59391;52.504;13.438;2024-01-07T13:36:31;9.45;;;6.00;;
71562;SDS011;59391;52.504;13.438;2024-01-07T13:38:57;11.33;;;6.83;;
71562;SDS011;59391;52.504;13.438;2024-01-07T13:41:22;9.23;;;5.80;;
71562;SDS011;59391;52.504;13.438;2024-01-07T13:43:48;9.85;;;6.50;;
71562;SDS011;59391;52.504;13.438;2024-01-07T13:46:15;11.65;;;6.60;;
71562;SDS011;59391;52.504;13.438;2024-01-07T13:48:41;10.10;;;6.10;;
71562;SDS011;59391;52.504;13.438;2024-01-07T13:51:08;8.95;;;5.82;;
71562;SDS011;59391;52.504;13.438;2024-01-07T13:53:34;9.57;;;6.50;;
71562;SDS011;59391;52.504;13.438;2024-01-07T13:56:00;8.57;;;6.10;;
71562;SDS011;59391;52.504;13.438;2024-01-07T13:58:25;9.45;;;6.10;;
71562;SDS011;59391;52.504;13.438;2024-01-07T14:00:51;9.40;;;6.07;;
71562;SDS011;59391;52.504;13.438;2024-01-07T14:03:17;8.98;;;6.18;;
71562;SDS011;59391;52.504;13.438;2024-01-07T14:05:45;8.27;;;6.00;;
71562;SDS011;59391;52.504;13.438;2024-01-07T14:08:10;10.53;;;5.83;;
71562;SDS011;59391;52.504;13.438;2024-01-07T14:10:36;9.18;;;5.78;;
71562;SDS011;59391;52.504;13.438;2024-01-07T14:13:03;9.30;;;5.77;;
71562;SDS011;59391;52.504;13.438;2024-01-07T14:15:29;9.07;;;5.60;;
71562;SDS011;59391;52.504;13.438;2024-01-07T14:17:55;9.98;;;5.80;;
71562;SDS011;59391;52.504;13.438;2024-01-07T14:20:21;8.80;;;5.87;;
71562;SDS011;59391;52.504;13.438;2024-01-07T14:22:46;11.48;;;6.40;;
71562;SDS011;59391;52.504;13.438;2024-01-07T14:25:12;12.20;;;8.03;;
71562;SDS011;59391;52.504;13.438;2024-01-07T14:27:39;14.07;;;8.15;;
71562;SDS011;59391;52.504;13.438;2024-01-07T14:30:05;10.25;;;6.40;;
71562;SDS011;59391;52.504;13.438;2024-01-07T14:32:31;10.27;;;5.47;;
71562;SDS011;59391;52.504;13.438;2024-01-07T14:34:58;9.53;;;5.90;;
71562;SDS011;59391;52.504;13.438;2024-01-07T14:37:24;7.70;;;5.15;;